createdAt,value
2018-04-14T00:04:08.862Z,3.70
2018-04-14T00:09:12.067Z,3.17
2018-04-14T00:14:15.265Z,3.50
2018-04-14T00:19:18.471Z,4.20
2018-04-14T00:24:21.673Z,3.93
2018-04-14T00:29:24.960Z,4.57
2018-04-14T00:34:28.584Z,4.27
2018-04-14T00:39:32.179Z,3.77
2018-04-14T00:44:35.386Z,4.17
2018-04-14T00:49:38.608Z,3.77
2018-04-14T00:54:42.235Z,3.87
2018-04-14T00:59:45.437Z,4.17
2018-04-14T01:04:50.574Z,4.73
2018-04-14T01:09:54.183Z,4.20
2018-04-14T01:14:57.408Z,4.00
2018-04-14T01:20:01.103Z,4.33
2018-04-14T01:25:04.328Z,4.20
2018-04-14T01:30:07.939Z,4.70
2018-04-14T01:35:11.563Z,4.80
2018-04-14T01:40:15.214Z,7.10
2018-04-14T01:45:18.458Z,6.07
2018-04-14T01:50:21.672Z,6.37
2018-04-14T01:55:25.395Z,6.47
2018-04-14T02:00:28.995Z,6.40
2018-04-14T02:05:32.916Z,5.70
2018-04-14T02:10:36.128Z,5.83
2018-04-14T02:15:39.762Z,5.57
2018-04-14T02:20:43.364Z,5.53
2018-04-14T02:25:46.970Z,5.77
2018-04-14T02:30:50.184Z,5.90
2018-04-14T02:35:53.795Z,5.90
2018-04-14T02:40:58.013Z,6.70
2018-04-14T02:46:01.225Z,5.83
2018-04-14T02:51:04.427Z,6.13
2018-04-14T02:56:07.629Z,5.43
2018-04-14T03:01:10.925Z,6.03
2018-04-14T03:06:14.185Z,6.63
2018-04-14T03:11:17.394Z,6.50
2018-04-14T03:16:20.657Z,6.67
2018-04-14T03:21:24.586Z,6.53
2018-04-14T03:26:27.806Z,5.97
2018-04-14T03:31:31.572Z,5.90
2018-04-14T03:36:34.922Z,5.87
2018-04-14T03:41:38.537Z,6.23
2018-04-14T03:46:42.155Z,6.67
2018-04-14T03:51:45.758Z,6.77
2018-04-14T03:56:48.981Z,6.17
2018-04-14T04:01:52.654Z,7.43
2018-04-14T04:06:55.865Z,6.90
2018-04-14T04:11:59.081Z,6.07
2018-04-14T04:17:02.291Z,6.80
2018-04-14T04:22:17.437Z,6.33
2018-04-14T04:27:20.684Z,6.37
2018-04-14T04:32:23.905Z,5.50
2018-04-14T04:37:27.544Z,6.60
2018-04-14T04:42:30.758Z,6.23
2018-04-14T04:47:33.955Z,5.90
2018-04-14T04:52:37.165Z,6.53
2018-04-14T04:57:40.375Z,6.93
2018-04-14T05:02:43.859Z,7.43
2018-04-14T05:07:47.083Z,6.30
2018-04-14T05:12:50.322Z,6.87
2018-04-14T05:17:53.585Z,7.57
2018-04-14T05:22:56.799Z,6.93
2018-04-14T05:28:00.028Z,7.13
2018-04-14T05:33:03.269Z,7.10
2018-04-14T05:38:07.180Z,8.47
2018-04-14T05:43:10.407Z,8.57
2018-04-14T05:48:13.641Z,9.10
2018-04-14T05:53:16.847Z,7.53
2018-04-14T05:58:20.028Z,8.13
2018-04-14T06:03:23.675Z,7.67
2018-04-14T06:08:26.883Z,8.07
2018-04-14T06:13:30.077Z,8.20
2018-04-14T06:18:33.270Z,7.53
2018-04-14T06:23:36.864Z,7.93
2018-04-14T06:28:40.953Z,9.67
2018-04-14T06:33:44.239Z,7.47
2018-04-14T06:38:47.498Z,5.50
2018-04-14T06:43:50.679Z,4.07
2018-04-14T06:48:53.868Z,2.60
2018-04-14T06:53:57.043Z,4.00
2018-04-14T06:59:00.248Z,2.80
2018-04-14T07:04:03.446Z,3.50
2018-04-14T07:09:07.031Z,2.90
2018-04-14T07:14:10.246Z,2.93
2018-04-14T07:19:13.832Z,3.33
2018-04-14T07:24:17.010Z,2.87
2018-04-14T07:29:20.196Z,2.50
2018-04-14T07:34:23.480Z,2.60
2018-04-14T07:39:27.112Z,2.77
2018-04-14T07:44:30.716Z,3.03
2018-04-14T07:49:34.343Z,2.90
2018-04-14T07:54:38.913Z,4.33
2018-04-14T07:59:42.100Z,4.20
2018-04-14T08:04:45.304Z,3.30
2018-04-14T08:09:48.519Z,4.27
2018-04-14T08:14:51.897Z,5.47
2018-04-14T08:19:55.504Z,9.93
2018-04-14T08:24:59.110Z,4.70
2018-04-14T08:30:02.345Z,4.17
2018-04-14T08:35:05.924Z,3.57
2018-04-14T08:40:09.119Z,4.00
2018-04-14T08:45:12.317Z,5.78
2018-04-14T08:50:15.652Z,4.15
2018-04-14T08:55:18.850Z,3.60
2018-04-14T09:00:22.039Z,3.72
2018-04-14T09:05:25.252Z,3.12
2018-04-14T09:10:28.462Z,3.17
2018-04-14T09:15:31.650Z,3.28
2018-04-14T09:20:34.889Z,3.42
2018-04-14T09:25:38.092Z,2.65
2018-04-14T09:30:41.680Z,2.90
2018-04-14T09:35:44.885Z,3.20
2018-04-14T09:40:48.983Z,4.70
2018-04-14T09:45:52.213Z,3.17
2018-04-14T09:50:55.463Z,2.70
2018-04-14T09:55:58.667Z,2.90
2018-04-14T10:01:02.285Z,3.00
2018-04-14T10:06:05.494Z,2.53
2018-04-14T10:11:08.719Z,2.85
2018-04-14T10:16:12.067Z,2.83
2018-04-14T10:21:15.685Z,2.75
2018-04-14T10:26:18.885Z,2.70
2018-04-14T10:31:22.080Z,3.00
2018-04-14T10:36:25.309Z,3.10
2018-04-14T10:41:28.517Z,2.30
2018-04-14T10:46:32.159Z,2.78
2018-04-14T10:51:35.363Z,2.55
2018-04-14T10:56:38.609Z,2.28
2018-04-14T11:01:41.795Z,2.40
2018-04-14T11:06:45.019Z,2.58
2018-04-14T11:11:48.207Z,3.92
2018-04-14T11:16:51.411Z,3.30
2018-04-14T11:21:54.664Z,3.50
2018-04-14T11:26:58.272Z,3.37
2018-04-14T11:32:01.486Z,2.80
2018-04-14T11:37:04.695Z,3.28
2018-04-14T11:42:07.924Z,3.33
2018-04-14T11:47:11.134Z,2.97
2018-04-14T11:52:14.407Z,2.75
2018-04-14T11:57:17.626Z,2.10
2018-04-14T12:02:21.248Z,2.20
2018-04-14T12:07:24.467Z,2.50
2018-04-14T12:12:27.739Z,2.20
2018-04-14T12:17:30.962Z,1.83
2018-04-14T12:22:34.608Z,1.95
2018-04-14T12:27:37.878Z,2.80
2018-04-14T12:32:41.494Z,2.00
2018-04-14T12:37:45.107Z,2.33
2018-04-14T12:42:48.720Z,2.10
2018-04-14T12:47:52.460Z,2.25
2018-04-14T12:52:55.698Z,2.50
2018-04-14T12:57:59.046Z,2.28
2018-04-14T13:03:02.667Z,1.30
2018-04-14T13:08:06.293Z,2.17
2018-04-14T13:13:09.912Z,1.85
2018-04-14T13:18:13.125Z,2.40
2018-04-14T13:23:16.343Z,1.00
2018-04-14T13:28:19.563Z,1.17
2018-04-14T13:33:22.778Z,1.98
2018-04-14T13:38:26.022Z,2.20
2018-04-14T13:43:29.678Z,1.23
2018-04-14T13:48:32.915Z,1.20
2018-04-14T13:53:36.194Z,0.70
2018-04-14T13:58:40.021Z,0.50
2018-04-14T14:03:43.484Z,0.50
2018-04-14T14:08:47.482Z,0.80
2018-04-14T14:13:50.836Z,0.60
2018-04-14T14:18:54.668Z,0.50
2018-04-14T14:23:58.457Z,0.60
2018-04-14T14:29:02.233Z,0.60
2018-04-14T14:34:06.251Z,0.70
2018-04-14T14:39:09.516Z,0.57
2018-04-14T14:44:13.522Z,0.60
2018-04-14T14:49:17.552Z,0.68
2018-04-14T14:54:21.082Z,0.50
2018-04-14T14:59:24.742Z,0.62
2018-04-14T15:04:28.090Z,0.73
2018-04-14T15:09:32.299Z,0.80
2018-04-14T15:14:36.232Z,0.70
2018-04-14T15:19:40.056Z,0.60
2018-04-14T15:24:43.535Z,0.60
2018-04-14T15:29:46.965Z,0.68
2018-04-14T15:34:50.218Z,0.90
2018-04-14T15:39:53.452Z,0.90
2018-04-14T15:44:57.137Z,0.77
2018-04-14T15:50:00.381Z,0.80
2018-04-14T15:55:03.831Z,0.93
2018-04-14T16:00:07.535Z,0.77
2018-04-14T16:05:11.237Z,0.88
2018-04-14T16:10:14.490Z,0.80
2018-04-14T16:15:17.718Z,0.90
2018-04-14T16:20:20.983Z,1.20
2018-04-14T16:25:24.195Z,0.90
2018-04-14T16:30:27.592Z,1.10
2018-04-14T16:35:31.091Z,1.00
2018-04-14T16:40:36.686Z,1.20
2018-04-14T16:45:41.120Z,1.20
2018-04-14T16:50:45.028Z,0.93
2018-04-14T16:55:48.522Z,0.88
2018-04-14T17:00:51.791Z,1.12
2018-04-14T17:05:55.131Z,0.98
2018-04-14T17:10:58.772Z,1.00
2018-04-14T17:16:02.004Z,1.00
2018-04-14T17:21:05.330Z,1.35
2018-04-14T17:26:08.641Z,1.12
2018-04-14T17:31:11.906Z,1.05
2018-04-14T17:36:15.641Z,1.20
2018-04-14T17:41:18.911Z,3.17
2018-04-14T17:46:22.535Z,1.23
2018-04-14T17:51:26.167Z,1.40
2018-04-14T17:56:29.390Z,1.30
2018-04-14T18:01:32.740Z,2.00
2018-04-14T18:06:35.964Z,2.10
2018-04-14T18:11:39.253Z,2.65
2018-04-14T18:16:42.519Z,1.70
2018-04-14T18:21:45.937Z,11.85
2018-04-14T18:26:49.159Z,3.72
2018-04-14T18:31:52.391Z,2.72
2018-04-14T18:36:56.096Z,3.30
2018-04-14T18:41:59.741Z,2.55
2018-04-14T18:47:02.972Z,2.50
2018-04-14T18:52:06.249Z,2.78
2018-04-14T18:57:09.467Z,2.40
2018-04-14T19:02:12.810Z,2.87
2018-04-14T19:07:16.307Z,2.55
2018-04-14T19:12:19.676Z,2.20
2018-04-14T19:17:23.755Z,2.50
2018-04-14T19:22:27.008Z,3.00
2018-04-14T19:27:30.947Z,2.53
2018-04-14T19:32:34.227Z,2.87
2018-04-14T19:37:37.890Z,2.90
2018-04-14T19:42:41.536Z,2.80
2018-04-14T19:47:44.742Z,2.62
2018-04-14T19:52:48.035Z,2.72
2018-04-14T19:57:51.478Z,2.67
2018-04-14T20:02:55.116Z,2.95
2018-04-14T20:07:58.502Z,2.80
2018-04-14T20:13:02.704Z,2.90
2018-04-14T20:18:06.454Z,2.55
2018-04-14T20:23:10.380Z,2.75
2018-04-14T20:28:13.995Z,2.70
2018-04-14T20:33:17.610Z,2.45
2018-04-14T20:38:20.908Z,2.67
2018-04-14T20:43:26.253Z,3.15
2018-04-14T20:48:29.635Z,2.78
2018-04-14T20:53:33.389Z,2.95
2018-04-14T20:58:36.714Z,2.70
2018-04-14T21:03:41.330Z,2.83
2018-04-14T21:08:45.557Z,2.95
2018-04-14T21:13:49.782Z,3.33
2018-04-14T21:18:53.254Z,3.45
2018-04-14T21:23:56.454Z,3.12
2018-04-14T21:28:59.872Z,3.22
2018-04-14T21:34:03.754Z,3.10
2018-04-14T21:39:07.240Z,3.12
2018-04-14T21:44:10.701Z,2.85
2018-04-14T21:49:14.573Z,3.87
2018-04-14T21:54:18.521Z,3.08
2018-04-14T21:59:22.149Z,3.05
2018-04-14T22:04:25.744Z,2.72
2018-04-14T22:09:29.859Z,2.83
2018-04-14T22:14:33.900Z,3.10
2018-04-14T22:19:37.124Z,3.45
2018-04-14T22:24:40.360Z,3.17
2018-04-14T22:29:43.677Z,2.85
2018-04-14T22:34:47.188Z,3.28
2018-04-14T22:39:50.430Z,3.05
2018-04-14T22:44:54.047Z,3.25
2018-04-14T22:49:57.678Z,2.92
2018-04-14T22:55:00.891Z,2.87
2018-04-14T23:00:04.134Z,3.00
2018-04-14T23:05:07.463Z,3.12
2018-04-14T23:10:10.785Z,3.05
2018-04-14T23:15:14.142Z,2.58
2018-04-14T23:20:17.383Z,3.30
2018-04-14T23:25:20.593Z,3.30
2018-04-14T23:30:23.814Z,3.07
2018-04-14T23:35:27.433Z,3.03
2018-04-14T23:40:30.655Z,2.87
2018-04-14T23:45:33.886Z,3.77
2018-04-14T23:50:37.238Z,3.25
2018-04-14T23:55:40.902Z,3.60
